Reno, NV (89506)

5:42 AM PDT on October 21, 2014 (GMT -0700)
Red Rock - N7TR | Change Station
CLOSE
Current Station
Personal Weather Station
Location: Reno, NV
Elevation: 5233 ft
Nearby Weather Stations

Elev 5233 ft 39.69 °N, 119.92 °W | Updated 2 seconds ago

Clear
Clear
36.6 °F
Feels Like 30 °F
N
9.0
Wind Variable Wind from West
Gusts 11.0 mph

Today
High -- | Low -- °F
--% Chance of Precip.
Yesterday
High -- | Low -- °F
Precip. -- in
7:16 AM 6:11 PM
Waning Crescent, 6% visible
Pressure 30.09 in
Visibility 10.0 miles
Clouds Clear
Windchill 30 °F
Dew Point 30 °F
Humidity 76%
Rainfall 0.00 in
Snow Depth 0 in
UV 0 out of 12
Pollen 1.90 out of 12
Air Quality Not available.
Flu Activity No Activity
METAR KRTS 211235Z AUTO 29005KT 10SM CLR 00/M03 A3009 RMK AO2

More Conditions Fewer Conditions

Pressure 30.09 in
Visibility 10.0 miles
Clouds Clear
Windchill 30 °F
Dew Point 30 °F
Humidity 76%
Rainfall 0.00 in
Snow Depth 0 in
UV 0 out of 12
Pollen 1.90 out of 12
Air Quality Not available.
Flu Activity No Activity
METAR KRTS 211235Z AUTO 29005KT 10SM CLR 00/M03 A3009 RMK AO2

More Conditions Fewer Conditions

10-Day Weather Forecast

Almanac

Astronomy

Oct. 21, 2014 Rise Set
Actual Time 7:16 AM PDT 6:11 PM PDT
Civil Twilight 6:48 AM PDT 6:38 PM PDT
Nautical Twilight 6:17 AM PDT 7:10 PM PDT
Astronomical Twilight 5:46 AM PDT 7:41 PM PDT
Moon 5:05 AM PDT 5:07 PM PDT
Length of Visible Light 11h 50m
Length of Day
10h 55m
Tomorrow will be 2m 26s shorter.
Waning Crescent, 6% of the Moon is Illuminated
Today
Waning Crescent
Oct 23
New
Oct 30
First Quarter
Nov 6
Full
Nov 14
Last Quarter

Today's Extremes

State Highs State Lows

Community

WunderPhotos

Upload Photos

1,763,649 photos uploaded!

Nearby

Snow Depth

Station Depth Elevation
Big Meadow 0 in 8300 ft
Marlette Lake 1 in 8000 ft
Big Creek Summit 1 in 8700 ft
Lewis Peak 0 in 7400 ft
Lamance Creek 0 in 6000 ft

Earthquake Activity

City Distance Mag. Time & Date
Smith Valley, Nevada 75 miles 2.9 10:59 AM PDT
2014-10-18
Minimum magnitude displayed is 2.5.

Coastal Water Temperatures

Place Temperature
No Stations Reporting

Nearby Weather Stations